Time;durP1;ratioP1;P1;durP2;ratioP2;P2;SDS_P1;SDS_P2;PMS_P1;PMS_P2;Temp;Humidity;BMP_temperature;BMP_pressure;BME280_temperature;BME280_humidity;BME280_pressure;Samples;Min_cycle;Max_cycle;Signal;HPM_P1;HPM_P2
2020/12/06 00:02:22;;;;;;;;;;;;;;;20.40;42.66;101473.50;5096166;28;811;-60
2020/12/06 00:04:47;;;;;;;;;;;;;;;20.59;42.13;101478.41;5095726;28;779;-61
2020/12/06 00:07:13;;;;;;;;;;;;;;;20.54;42.22;101475.66;5094607;28;1988;-60
2020/12/06 00:09:38;;;;;;;;;;;;;;;20.58;42.00;101476.72;5077706;28;976;-59
2020/12/06 00:12:04;;;;;;;;;;;;;;;20.48;42.23;101472.94;5075758;28;819;-60
2020/12/06 00:14:29;;;;;;;;;;;;;;;20.58;42.22;101480.34;5075786;28;728;-59
2020/12/06 00:16:55;;;;;;;;;;;;;;;20.62;42.06;101478.66;5074545;28;1104;-62
2020/12/06 00:19:20;;;;;;;;;;;;;;;20.61;42.14;101488.06;5073670;28;1147;-62
2020/12/06 00:21:46;;;;;;;;;;;;;;;20.62;42.10;101486.09;5074443;28;946;-62
2020/12/06 00:24:12;;;;;;;;;;;;;;;20.62;41.95;101486.09;5075775;28;803;-63
2020/12/06 00:26:37;;;;;;;;;;;;;;;20.62;42.05;101483.34;5090348;28;994;-62
2020/12/06 00:29:03;;;;;;;;;;;;;;;20.63;42.03;101479.47;5095849;28;1914;-63
2020/12/06 00:31:28;;;;;;;;;;;;;;;20.65;41.89;101485.53;5077418;28;1233;-63
2020/12/06 00:33:54;;;;;;;;;;;;;;;20.64;42.15;101483.91;5095780;28;870;-63
2020/12/06 00:36:19;;;;;;;;;;;;;;;20.67;42.15;101484.19;5095795;28;859;-62
2020/12/06 00:38:46;;;;;;;;;;;;;;;20.43;42.50;101475.69;5095716;28;811;-63
2020/12/06 00:41:12;;;;;;;;;;;;;;;20.57;42.26;101483.41;5095233;28;965;-63
2020/12/06 00:43:38;;;;;;;;;;;;;;;20.40;42.73;101476.28;5095861;28;783;-63
2020/12/06 00:46:04;;;;;;;;;;;;;;;20.30;43.03;101468.00;5095619;28;1130;-62
2020/12/06 00:48:29;;;;;;;;;;;;;;;20.48;42.47;101475.69;5097966;28;1914;-62
2020/12/06 00:50:54;;;;;;;;;;;;;;;20.51;42.57;101474.31;5099344;28;791;-62
2020/12/06 00:53:20;;;;;;;;;;;;;;;20.64;42.04;101478.38;5098227;28;1223;-63
2020/12/06 00:55:46;;;;;;;;;;;;;;;20.58;42.32;101471.22;5097681;28;1275;-63
2020/12/06 00:58:12;;;;;;;;;;;;;;;20.64;42.05;101475.63;5098295;28;1124;-63
2020/12/06 01:00:38;;;;;;;;;;;;;;;20.50;42.39;101467.94;5098673;28;831;-59
2020/12/06 01:03:03;;;;;;;;;;;;;;;20.53;42.29;101472.06;5097716;28;858;-60
2020/12/06 01:05:29;;;;;;;;;;;;;;;20.21;43.14;101475.25;5099072;28;815;-59
2020/12/06 01:07:54;;;;;;;;;;;;;;;20.37;42.51;101471.31;5098698;28;2052;-59
2020/12/06 01:10:20;;;;;;;;;;;;;;;20.50;42.33;101469.88;5099078;28;1008;-58
2020/12/06 01:12:45;;;;;;;;;;;;;;;20.42;42.75;101468.50;5098874;28;778;-59
2020/12/06 01:15:11;;;;;;;;;;;;;;;20.39;42.44;101468.28;5098656;28;810;-58
2020/12/06 01:17:36;;;;;;;;;;;;;;;20.16;43.17;101471.38;5098583;28;1209;-58
2020/12/06 01:20:03;;;;;;;;;;;;;;;20.20;43.20;101473.56;5098412;28;830;-59
2020/12/06 01:22:28;;;;;;;;;;;;;;;20.20;43.11;101476.34;5098352;28;882;-59
2020/12/06 01:24:53;;;;;;;;;;;;;;;20.34;42.78;101477.38;5098244;28;1016;-59
2020/12/06 01:27:19;;;;;;;;;;;;;;;20.44;42.46;101469.06;5098783;28;1910;-62
2020/12/06 01:29:44;;;;;;;;;;;;;;;20.29;42.93;101463.63;5097191;28;783;-61
2020/12/06 01:32:10;;;;;;;;;;;;;;;20.24;42.85;101466.38;5096906;28;1238;-61
2020/12/06 01:34:35;;;;;;;;;;;;;;;20.39;42.71;101463.56;5098098;28;886;-60
2020/12/06 01:37:01;;;;;;;;;;;;;;;20.21;42.94;101455.91;5098426;28;755;-60
2020/12/06 01:39:26;;;;;;;;;;;;;;;20.20;43.19;101457.00;5097231;28;851;-62
2020/12/06 01:41:55;;;;;;;;;;;;;;;20.32;42.75;101463.88;5097738;28;953;-61
2020/12/06 01:44:21;;;;;;;;;;;;;;;20.44;42.49;101466.31;5098274;28;795;-60
2020/12/06 01:46:47;;;;;;;;;;;;;;;20.50;42.18;101469.88;5098128;28;1917;-62
2020/12/06 01:49:12;;;;;;;;;;;;;;;20.45;42.60;101458.84;5096667;28;795;-61
2020/12/06 01:51:38;;;;;;;;;;;;;;;20.47;42.40;101457.44;5096940;28;756;-61
2020/12/06 01:54:04;;;;;;;;;;;;;;;20.18;43.13;101451.78;5096836;28;804;-61
2020/12/06 01:56:29;;;;;;;;;;;;;;;20.33;42.64;101450.91;5097760;28;957;-61
2020/12/06 01:58:55;;;;;;;;;;;;;;;20.36;42.83;101450.31;5096987;28;799;-61
2020/12/06 02:01:20;;;;;;;;;;;;;;;20.38;42.71;101450.03;5097975;28;842;-61
2020/12/06 02:03:46;;;;;;;;;;;;;;;20.44;42.64;101452.50;5097598;28;768;-61
2020/12/06 02:06:11;;;;;;;;;;;;;;;20.31;42.75;101447.56;5097856;28;795;-60
2020/12/06 02:08:37;;;;;;;;;;;;;;;20.47;42.63;101449.16;5097490;28;1909;-61
2020/12/06 02:11:02;;;;;;;;;;;;;;;20.41;42.50;101450.31;5097374;28;949;-61
2020/12/06 02:13:28;;;;;;;;;;;;;;;20.55;42.30;101444.97;5097769;28;731;-61
2020/12/06 02:15:54;;;;;;;;;;;;;;;20.58;42.07;101449.94;5096183;28;905;-61
2020/12/06 02:18:20;;;;;;;;;;;;;;;20.52;42.44;101454.69;5097121;28;1034;-60
2020/12/06 02:20:45;;;;;;;;;;;;;;;20.50;42.46;101448.59;5096350;28;803;-60
2020/12/06 02:23:11;;;;;;;;;;;;;;;20.59;42.27;101448.81;5079447;28;1249;-60
2020/12/06 02:25:36;;;;;;;;;;;;;;;20.64;42.07;101451.56;5097230;28;977;-60
2020/12/06 02:28:02;;;;;;;;;;;;;;;20.67;42.13;101439.13;5096020;28;1917;-60
2020/12/06 02:30:28;;;;;;;;;;;;;;;20.40;42.83;101448.66;5097216;28;759;-61
2020/12/06 02:32:53;;;;;;;;;;;;;;;20.46;42.48;101449.44;5097141;28;756;-61
2020/12/06 02:35:19;;;;;;;;;;;;;;;20.42;42.76;101443.66;5097144;28;851;-61
2020/12/06 02:37:44;;;;;;;;;;;;;;;20.57;42.38;101444.72;5097524;28;771;-61
2020/12/06 02:40:10;;;;;;;;;;;;;;;20.52;42.23;101438.09;5096756;28;965;-58
2020/12/06 02:42:35;;;;;;;;;;;;;;;20.59;42.16;101439.72;5097170;28;827;-58
2020/12/06 02:45:01;;;;;;;;;;;;;;;20.50;42.39;101432.00;5097081;28;776;-58
2020/12/06 02:47:26;;;;;;;;;;;;;;;20.57;42.60;101436.41;5096835;28;2039;-58
2020/12/06 02:49:52;;;;;;;;;;;;;;;20.56;42.39;101434.75;5096685;28;883;-58
2020/12/06 02:52:17;;;;;;;;;;;;;;;20.43;42.58;101433.44;5096920;28;748;-59
2020/12/06 02:54:43;;;;;;;;;;;;;;;20.44;42.62;101438.69;5096538;28;988;-58
2020/12/06 02:57:08;;;;;;;;;;;;;;;20.54;42.64;101428.69;5096753;28;779;-58
2020/12/06 02:59:34;;;;;;;;;;;;;;;20.47;42.59;101424.31;5095764;28;878;-58
2020/12/06 03:01:59;;;;;;;;;;;;;;;20.50;42.63;101429.25;5096649;28;881;-59
2020/12/06 03:04:24;;;;;;;;;;;;;;;20.52;42.58;101427.03;5096702;28;763;-59
2020/12/06 03:06:50;;;;;;;;;;;;;;;20.34;42.80;101422.16;5096482;28;1914;-59
2020/12/06 03:09:15;;;;;;;;;;;;;;;20.49;42.41;101430.34;5096226;28;783;-62
2020/12/06 03:11:41;;;;;;;;;;;;;;;20.52;42.66;101416.00;5096509;28;1004;-62
2020/12/06 03:14:06;;;;;;;;;;;;;;;20.64;42.12;101431.41;5096693;28;526;-59
2020/12/06 03:16:32;;;;;;;;;;;;;;;20.59;42.44;101435.00;5096992;28;835;-60
2020/12/06 03:18:57;;;;;;;;;;;;;;;20.64;42.10;101423.94;5096217;28;1071;-59
2020/12/06 03:21:23;;;;;;;;;;;;;;;20.74;42.00;101434.13;5096815;28;767;-60
2020/12/06 03:23:48;;;;;;;;;;;;;;;20.69;42.20;101442.44;5096409;28;744;-59
2020/12/06 03:26:14;;;;;;;;;;;;;;;20.62;42.50;101437.22;5096010;28;964;-59
2020/12/06 03:28:39;;;;;;;;;;;;;;;20.44;42.71;101435.94;5096338;28;1976;-59
2020/12/06 03:31:04;;;;;;;;;;;;;;;20.40;43.00;101429.31;5096266;28;800;-62
2020/12/06 03:33:30;;;;;;;;;;;;;;;20.52;42.57;101432.56;5096455;28;823;-61
2020/12/06 03:35:55;;;;;;;;;;;;;;;20.64;42.28;101428.63;5096444;28;902;-60
2020/12/06 03:38:21;;;;;;;;;;;;;;;20.43;42.67;101431.50;5096119;28;819;-60
2020/12/06 03:40:46;;;;;;;;;;;;;;;20.33;42.84;101428.81;5095897;28;1008;-59
2020/12/06 03:43:12;;;;;;;;;;;;;;;20.33;42.90;101423.28;5094724;28;832;-59
2020/12/06 03:45:37;;;;;;;;;;;;;;;20.51;42.49;101430.09;5094700;28;819;-60
2020/12/06 03:48:02;;;;;;;;;;;;;;;20.58;42.46;101419.56;5096051;28;1971;-60
2020/12/06 03:50:28;;;;;;;;;;;;;;;20.67;42.12;101417.00;5094912;28;843;-59
2020/12/06 03:52:53;;;;;;;;;;;;;;;20.66;42.24;101418.97;5096219;28;788;-60
2020/12/06 03:55:19;;;;;;;;;;;;;;;20.59;42.40;101420.38;5095805;28;984;-60
2020/12/06 03:57:44;;;;;;;;;;;;;;;20.62;42.29;101425.31;5094998;28;780;-59
2020/12/06 04:00:10;;;;;;;;;;;;;;;20.77;42.15;101428.03;5096010;28;803;-60
2020/12/06 04:02:35;;;;;;;;;;;;;;;20.65;42.15;101424.75;5095804;28;752;-60
2020/12/06 04:05:01;;;;;;;;;;;;;;;20.75;41.76;101430.25;5096183;28;810;-60
2020/12/06 04:07:26;;;;;;;;;;;;;;;20.39;42.92;101433.19;5096210;28;1971;-60
2020/12/06 04:09:52;;;;;;;;;;;;;;;20.27;43.01;101418.88;5095805;28;957;-61
2020/12/06 04:12:17;;;;;;;;;;;;;;;20.36;43.15;101417.19;5096053;28;916;-60
2020/12/06 04:14:43;;;;;;;;;;;;;;;20.52;42.67;101421.53;5096183;28;756;-60
2020/12/06 04:17:08;;;;;;;;;;;;;;;20.54;42.56;101429.53;5096158;28;991;-61
2020/12/06 04:19:33;;;;;;;;;;;;;;;20.60;42.49;101424.78;5096325;28;771;-62
2020/12/06 04:21:59;;;;;;;;;;;;;;;20.54;42.46;101423.16;5099400;28;798;-63
2020/12/06 04:24:24;;;;;;;;;;;;;;;20.54;42.69;101431.44;5099785;28;783;-63
2020/12/06 04:26:50;;;;;;;;;;;;;;;20.63;42.56;101429.75;5098621;28;961;-60
2020/12/06 04:29:15;;;;;;;;;;;;;;;20.68;42.32;101429.75;5099453;28;1970;-60
2020/12/06 04:31:41;;;;;;;;;;;;;;;20.71;41.98;101423.66;5097884;28;939;-62
2020/12/06 04:34:06;;;;;;;;;;;;;;;20.43;42.86;101433.44;5098650;28;822;-62
2020/12/06 04:36:32;;;;;;;;;;;;;;;20.41;42.77;101435.66;5099483;28;844;-64
2020/12/06 04:38:57;;;;;;;;;;;;;;;20.51;42.61;101427.34;5099500;28;831;-65
2020/12/06 04:41:23;;;;;;;;;;;;;;;20.48;42.52;101431.50;5099332;28;1004;-63
2020/12/06 04:43:49;;;;;;;;;;;;;;;20.59;42.36;101431.41;5099334;28;803;-61
2020/12/06 04:46:14;;;;;;;;;;;;;;;20.60;42.36;101422.84;5099444;28;763;-62
2020/12/06 04:48:46;;;;;;;;;;;;;;;20.77;41.96;101422.50;5098238;28;1967;-62
2020/12/06 04:51:12;;;;;;;;;;;;;;;20.68;42.23;101424.22;5099243;28;815;-62
2020/12/06 04:53:43;;;;;;;;;;;;;;;20.57;42.31;101428.13;5093664;28;1518;-62
2020/12/06 04:56:10;;;;;;;;;;;;;;;20.70;42.01;101422.00;5085457;28;934;-64
2020/12/06 04:58:35;;;;;;;;;;;;;;;20.60;42.18;101433.91;5079111;28;767;-61
2020/12/06 05:01:01;;;;;;;;;;;;;;;20.65;42.16;101431.13;5077615;28;835;-60
2020/12/06 05:03:26;;;;;;;;;;;;;;;20.51;42.72;101441.16;5093656;28;791;-60
2020/12/06 05:05:52;;;;;;;;;;;;;;;20.42;42.41;101434.56;5080588;28;895;-58
2020/12/06 05:08:17;;;;;;;;;;;;;;;20.42;42.68;101435.38;5097643;28;1913;-60
2020/12/06 05:10:49;;;;;;;;;;;;;;;20.37;42.77;101440.94;5098767;28;977;-59
2020/12/06 05:13:15;;;;;;;;;;;;;;;20.35;42.92;101437.63;5098884;28;743;-60
2020/12/06 05:15:40;;;;;;;;;;;;;;;20.41;42.63;101442.03;5099115;28;843;-61
2020/12/06 05:18:06;;;;;;;;;;;;;;;20.09;43.33;101440.50;5080426;28;1139;-60
2020/12/06 05:20:31;;;;;;;;;;;;;;;20.17;43.32;101447.34;5078915;28;827;-59
2020/12/06 05:22:57;;;;;;;;;;;;;;;20.24;43.08;101447.06;5078443;28;848;-61
2020/12/06 05:25:22;;;;;;;;;;;;;;;20.16;43.23;101446.53;5084329;28;995;-60
2020/12/06 05:27:48;;;;;;;;;;;;;;;20.13;43.33;101449.88;5098667;28;1977;-60
2020/12/06 05:30:13;;;;;;;;;;;;;;;20.30;42.96;101454.19;5079546;28;796;-59
2020/12/06 05:32:39;;;;;;;;;;;;;;;20.17;43.19;101453.72;5098074;28;764;-56
2020/12/06 05:35:05;;;;;;;;;;;;;;;20.12;43.33;101464.78;5098655;28;818;-48
2020/12/06 05:37:30;;;;;;;;;;;;;;;20.22;43.04;101460.34;5098236;28;747;-52
2020/12/06 05:40:22;;;;;;;;;;;;;;;20.32;42.75;101461.09;5098148;28;1008;-57
2020/12/06 05:42:47;;;;;;;;;;;;;;;20.34;42.86;101464.41;5093364;28;1783;-55
2020/12/06 05:45:13;;;;;;;;;;;;;;;20.35;42.65;101466.06;5098167;28;783;-51
2020/12/06 05:47:38;;;;;;;;;;;;;;;20.17;43.15;101470.28;5098103;28;1918;-52
2020/12/06 05:50:04;;;;;;;;;;;;;;;19.96;43.64;101464.00;5098349;28;791;-58
2020/12/06 05:52:30;;;;;;;;;;;;;;;20.07;43.40;101475.81;5097899;28;814;-60
2020/12/06 05:54:56;;;;;;;;;;;;;;;20.14;43.08;101470.81;5096789;28;996;-58
2020/12/06 05:57:25;;;;;;;;;;;;;;;20.16;43.07;101479.66;5096601;28;885;-62
2020/12/06 05:59:50;;;;;;;;;;;;;;;20.20;42.76;101479.09;5079895;28;1086;-60
2020/12/06 06:02:16;;;;;;;;;;;;;;;20.01;43.59;101479.72;5096477;28;837;-60
2020/12/06 06:04:41;;;;;;;;;;;;;;;20.01;43.38;101488.00;5098047;28;747;-55
2020/12/06 06:07:12;;;;;;;;;;;;;;;20.04;43.43;101484.66;5096330;28;1910;-60
2020/12/06 06:09:40;;;;;;;;;;;;;;;19.82;43.92;101490.50;5097857;28;492;-60
2020/12/06 06:12:24;;;;;;;;;;;;;;;20.02;43.53;101489.66;5097655;28;795;-60
2020/12/06 06:14:53;;;;;;;;;;;;;;;20.03;43.55;101498.75;5097597;28;807;-56
2020/12/06 06:17:19;;;;;;;;;;;;;;;19.94;43.79;101495.75;5097577;28;1158;-54
2020/12/06 06:19:44;;;;;;;;;;;;;;;20.22;43.07;101501.75;5079408;28;791;-62
2020/12/06 06:22:13;;;;;;;;;;;;;;;20.08;43.37;101507.84;5096107;28;819;-59
2020/12/06 06:24:38;;;;;;;;;;;;;;;19.98;43.67;101505.13;5096432;28;867;-56
2020/12/06 06:27:04;;;;;;;;;;;;;;;19.91;43.57;101505.41;5072978;28;1981;-56
2020/12/06 06:29:30;;;;;;;;;;;;;;;19.74;43.91;101511.19;5078481;28;787;-57
2020/12/06 06:31:55;;;;;;;;;;;;;;;19.81;43.83;101500.72;5077231;28;926;-59
2020/12/06 06:34:24;;;;;;;;;;;;;;;19.90;43.44;101498.22;5075699;28;1455;-58
2020/12/06 06:36:50;;;;;;;;;;;;;;;19.68;44.29;101506.75;5088140;28;779;-55
2020/12/06 06:39:19;;;;;;;;;;;;;;;19.74;44.05;101505.69;5097418;28;842;-57
2020/12/06 06:41:55;;;;;;;;;;;;;;;19.81;43.75;101497.13;5097129;28;969;-59
2020/12/06 06:44:21;;;;;;;;;;;;;;;19.83;43.58;101497.69;5096469;28;870;-56
2020/12/06 06:46:47;;;;;;;;;;;;;;;19.76;43.99;101495.16;5096261;28;1115;-59
2020/12/06 06:49:12;;;;;;;;;;;;;;;19.80;43.69;101492.72;5075873;28;1902;-58
2020/12/06 06:51:38;;;;;;;;;;;;;;;19.92;43.69;101489.66;5058984;28;895;-59
2020/12/06 06:54:04;;;;;;;;;;;;;;;19.78;43.92;101489.38;5076841;28;836;-57
2020/12/06 06:56:29;;;;;;;;;;;;;;;19.79;43.94;101489.13;5091896;28;1009;-56
2020/12/06 06:58:55;;;;;;;;;;;;;;;19.86;43.64;101490.78;5096751;28;888;-57
2020/12/06 07:01:21;;;;;;;;;;;;;;;19.71;43.85;101495.16;5095726;28;1322;-58
2020/12/06 07:03:47;;;;;;;;;;;;;;;19.67;43.86;101494.09;5096710;28;731;-58
2020/12/06 07:06:19;;;;;;;;;;;;;;;19.73;43.83;101487.47;5095489;28;803;-58
2020/12/06 07:08:45;;;;;;;;;;;;;;;19.70;43.83;101488.03;5095515;28;1977;-58
2020/12/06 07:11:10;;;;;;;;;;;;;;;19.52;44.39;101499.59;5095231;28;946;-59
2020/12/06 07:13:35;;;;;;;;;;;;;;;19.84;43.52;101504.88;5096591;28;811;-58
2020/12/06 07:16:08;;;;;;;;;;;;;;;19.63;43.96;101504.03;5095399;28;1342;-59
2020/12/06 07:18:33;;;;;;;;;;;;;;;19.85;43.57;101500.16;5096385;28;1027;-59
2020/12/06 07:20:58;;;;;;;;;;;;;;;19.82;43.67;101510.66;5095229;28;1341;-58
2020/12/06 07:23:24;;;;;;;;;;;;;;;19.60;44.15;101505.41;5096825;28;771;-58
2020/12/06 07:25:49;;;;;;;;;;;;;;;19.60;44.40;101505.41;5085354;28;957;-60
2020/12/06 07:28:15;;;;;;;;;;;;;;;19.70;43.89;101504.56;5074905;28;1913;-64
2020/12/06 07:30:40;;;;;;;;;;;;;;;19.54;44.12;101505.69;5075966;28;843;-59
2020/12/06 07:33:06;;;;;;;;;;;;;;;19.71;43.72;101511.72;5076236;28;811;-59
2020/12/06 07:35:31;;;;;;;;;;;;;;;19.59;44.20;101511.22;5076051;28;747;-57
2020/12/06 07:37:57;;;;;;;;;;;;;;;19.53;44.10;101510.38;5075108;28;783;-57
2020/12/06 07:40:22;;;;;;;;;;;;;;;19.54;44.00;101522.22;5082065;28;969;-58
2020/12/06 07:42:48;;;;;;;;;;;;;;;19.54;44.24;101511.19;5096243;28;819;-57
2020/12/06 07:45:13;;;;;;;;;;;;;;;19.57;44.09;101522.53;5096174;28;764;-56
2020/12/06 07:47:39;;;;;;;;;;;;;;;19.56;44.28;101520.00;5096346;28;1914;-57
2020/12/06 07:50:04;;;;;;;;;;;;;;;19.61;44.08;101523.59;5096123;28;750;-55
2020/12/06 07:52:35;;;;;;;;;;;;;;;19.61;43.94;101520.84;5096197;28;851;-57
2020/12/06 07:55:10;;;;;;;;;;;;;;;19.60;43.88;101518.34;5098206;28;945;-58
2020/12/06 07:57:42;;;;;;;;;;;;;;;19.53;44.25;101520.56;5100283;28;774;-53
2020/12/06 08:00:08;;;;;;;;;;;;;;;19.53;44.13;101521.41;5100306;28;811;-54
2020/12/06 08:02:33;;;;;;;;;;;;;;;19.46;44.40;101521.69;5099179;28;787;-58
2020/12/06 08:04:59;;;;;;;;;;;;;;;19.52;44.04;101518.91;5098820;28;823;-55
2020/12/06 08:07:26;;;;;;;;;;;;;;;19.47;44.38;101533.53;5099177;28;1981;-54
2020/12/06 08:09:52;;;;;;;;;;;;;;;19.55;44.01;101519.19;5098821;28;1004;-52
2020/12/06 08:12:18;;;;;;;;;;;;;;;19.65;43.70;101524.69;5099830;28;826;-54
2020/12/06 08:14:43;;;;;;;;;;;;;;;19.47;44.19;101531.63;5098975;28;775;-58
2020/12/06 08:17:09;;;;;;;;;;;;;;;19.62;44.08;101525.25;5100024;28;1027;-54
2020/12/06 08:19:37;;;;;;;;;;;;;;;19.63;43.98;101532.44;5099609;28;818;-54
2020/12/06 08:22:03;;;;;;;;;;;;;;;19.72;43.77;101526.38;5100063;28;1001;-58
2020/12/06 08:24:30;;;;;;;;;;;;;;;19.70;43.92;101520.28;5099984;28;795;-53
2020/12/06 08:26:55;;;;;;;;;;;;;;;19.85;43.46;101519.47;5099304;28;957;-59
2020/12/06 08:29:35;;;;;;;;;;;;;;;19.85;43.55;101522.25;5099757;28;1906;-54
2020/12/06 08:32:01;;;;;;;;;;;;;;;19.64;44.09;101519.47;5099846;28;788;-55
2020/12/06 08:34:27;;;;;;;;;;;;;;;19.77;43.50;101518.91;5099660;28;779;-55
2020/12/06 08:36:52;;;;;;;;;;;;;;;19.88;43.22;101505.13;5099738;28;775;-57
2020/12/06 08:39:18;;;;;;;;;;;;;;;19.85;43.55;101511.22;5099905;28;818;-58
2020/12/06 08:41:44;;;;;;;;;;;;;;;19.70;43.66;101504.56;5099091;28;945;-58
2020/12/06 08:44:09;;;;;;;;;;;;;;;19.62;43.97;101507.88;5098431;28;839;-58
2020/12/06 08:46:35;;;;;;;;;;;;;;;19.75;43.57;101499.03;5099752;28;803;-55
2020/12/06 08:49:00;;;;;;;;;;;;;;;19.80;43.52;101496.31;5099101;28;1910;-58
2020/12/06 08:51:26;;;;;;;;;;;;;;;19.64;43.89;101489.97;5098371;28;802;-59
2020/12/06 08:53:51;;;;;;;;;;;;;;;19.73;43.61;101481.13;5099344;28;783;-58
2020/12/06 08:56:37;;;;;;;;;;;;;;;19.69;43.89;101488.31;5099554;28;969;-58
2020/12/06 08:59:09;;;;;;;;;;;;;;;19.72;43.57;101482.22;5098992;28;1264;-58
2020/12/06 09:01:47;;;;;;;;;;;;;;;19.69;43.67;101475.31;5099103;28;802;-57
2020/12/06 09:04:13;;;;;;;;;;;;;;;19.77;43.55;101484.97;5099366;28;763;-57
2020/12/06 09:06:38;;;;;;;;;;;;;;;19.75;43.65;101482.47;5098399;28;788;-58
2020/12/06 09:09:04;;;;;;;;;;;;;;;19.62;43.80;101483.88;5098779;28;1971;-59
2020/12/06 09:11:29;;;;;;;;;;;;;;;19.64;43.99;101478.06;5098961;28;961;-57
2020/12/06 09:13:55;;;;;;;;;;;;;;;19.83;43.25;101465.38;5099021;28;819;-56
2020/12/06 09:16:20;;;;;;;;;;;;;;;19.86;43.14;101468.72;5098867;28;771;-52
2020/12/06 09:18:45;;;;;;;;;;;;;;;19.87;43.45;101462.91;5098644;28;1019;-59
2020/12/06 09:21:11;;;;;;;;;;;;;;;19.83;43.37;101459.06;5098990;28;828;-57
2020/12/06 09:23:36;;;;;;;;;;;;;;;19.75;43.59;101456.81;5098738;28;755;-58
2020/12/06 09:26:02;;;;;;;;;;;;;;;19.81;43.48;101451.06;5098414;28;950;-58
2020/12/06 09:28:28;;;;;;;;;;;;;;;19.99;43.17;101451.53;5098550;28;1980;-58
2020/12/06 09:30:53;;;;;;;;;;;;;;;19.91;43.24;101452.13;5098950;28;783;-51
2020/12/06 09:33:19;;;;;;;;;;;;;;;19.86;43.27;101447.44;5098489;28;859;-56
2020/12/06 09:35:45;;;;;;;;;;;;;;;20.01;42.96;101441.06;5098461;28;815;-58
2020/12/06 09:38:10;;;;;;;;;;;;;;;19.98;43.06;101441.63;5098436;28;780;-59
2020/12/06 09:40:36;;;;;;;;;;;;;;;20.03;42.94;101440.78;5098554;28;1012;-59
2020/12/06 09:43:01;;;;;;;;;;;;;;;20.01;42.97;101449.34;5098263;28;771;-58
2020/12/06 09:45:27;;;;;;;;;;;;;;;20.01;43.04;101443.81;5098509;28;767;-57
2020/12/06 09:47:52;;;;;;;;;;;;;;;19.91;43.10;101433.66;5098248;28;1917;-59
2020/12/06 09:50:17;;;;;;;;;;;;;;;19.92;43.26;101439.97;5096661;28;899;-60
2020/12/06 09:52:43;;;;;;;;;;;;;;;20.00;43.17;101429.19;5098311;28;775;-52
2020/12/06 09:55:08;;;;;;;;;;;;;;;19.99;43.23;101434.97;5098021;28;981;-52
2020/12/06 09:57:34;;;;;;;;;;;;;;;19.97;43.00;101418.72;5097854;28;920;-59
2020/12/06 09:59:59;;;;;;;;;;;;;;;19.81;43.43;101422.59;5098110;28;755;-57
2020/12/06 10:02:25;;;;;;;;;;;;;;;19.85;43.63;101420.13;5098003;28;855;-58
2020/12/06 10:04:50;;;;;;;;;;;;;;;19.85;43.50;101417.38;5096161;28;822;-54
2020/12/06 10:07:15;;;;;;;;;;;;;;;19.98;43.13;101408.50;5097882;28;1988;-58
2020/12/06 10:09:41;;;;;;;;;;;;;;;20.07;42.89;101408.75;5097732;28;1004;-56
2020/12/06 10:12:06;;;;;;;;;;;;;;;20.10;42.96;101424.75;5097525;28;795;-59
2020/12/06 10:14:32;;;;;;;;;;;;;;;20.21;42.59;101425.53;5097856;28;890;-60
2020/12/06 10:16:57;;;;;;;;;;;;;;;20.01;43.21;101430.03;5097610;28;775;-59
2020/12/06 10:19:23;;;;;;;;;;;;;;;20.14;42.76;101421.13;5096340;28;1216;-59
2020/12/06 10:21:48;;;;;;;;;;;;;;;20.09;43.06;101407.38;5097755;28;723;-58
2020/12/06 10:24:13;;;;;;;;;;;;;;;19.97;43.30;101404.09;5097965;28;814;-55
2020/12/06 10:26:39;;;;;;;;;;;;;;;20.17;42.80;101409.53;5097071;28;957;-52
2020/12/06 10:29:04;;;;;;;;;;;;;;;20.12;42.98;101420.59;5097803;28;1906;-57
2020/12/06 10:31:30;;;;;;;;;;;;;;;20.22;42.50;101413.38;5097300;28;798;-58
2020/12/06 10:33:55;;;;;;;;;;;;;;;20.14;42.72;101410.09;5097290;28;794;-60
2020/12/06 10:36:21;;;;;;;;;;;;;;;20.00;43.17;101406.28;5097442;28;759;-57
2020/12/06 10:38:46;;;;;;;;;;;;;;;20.14;42.65;101415.59;5097170;28;854;-58
2020/12/06 10:41:11;;;;;;;;;;;;;;;20.05;43.16;101409.03;5096931;28;961;-57
2020/12/06 10:43:37;;;;;;;;;;;;;;;20.20;42.68;101408.13;5097345;28;871;-57
2020/12/06 10:46:02;;;;;;;;;;;;;;;20.17;42.50;101405.94;5097023;28;811;-60
2020/12/06 10:48:28;;;;;;;;;;;;;;;20.34;42.59;101413.84;5096969;28;1976;-57
2020/12/06 10:50:53;;;;;;;;;;;;;;;20.36;42.56;101406.13;5097182;28;768;-59
2020/12/06 10:53:19;;;;;;;;;;;;;;;20.33;42.37;101406.72;5096951;28;787;-57
2020/12/06 10:55:44;;;;;;;;;;;;;;;20.19;42.80;101398.22;5096664;28;937;-60
2020/12/06 10:58:09;;;;;;;;;;;;;;;20.39;42.30;101393.69;5097245;28;783;-58
2020/12/06 11:00:35;;;;;;;;;;;;;;;20.38;42.26;101386.50;5097204;28;818;-52
2020/12/06 11:03:00;;;;;;;;;;;;;;;20.44;42.21;101380.69;5096795;28;770;-59
2020/12/06 11:05:26;;;;;;;;;;;;;;;20.42;42.23;101377.34;5096816;28;819;-54
2020/12/06 11:07:51;;;;;;;;;;;;;;;20.28;42.70;101370.81;5096733;28;1918;-63
2020/12/06 11:10:17;;;;;;;;;;;;;;;20.43;42.35;101367.16;5096662;28;953;-52
2020/12/06 11:12:43;;;;;;;;;;;;;;;20.50;41.98;101365.72;5095871;28;780;-59
2020/12/06 11:15:08;;;;;;;;;;;;;;;20.51;42.19;101364.59;5096934;28;771;-59
2020/12/06 11:17:34;;;;;;;;;;;;;;;20.35;42.30;101360.28;5096637;28;1004;-56
2020/12/06 11:20:00;;;;;;;;;;;;;;;20.50;41.84;101362.94;5096513;28;858;-59
2020/12/06 11:22:25;;;;;;;;;;;;;;;20.51;41.97;101358.28;5096721;28;826;-60
2020/12/06 11:24:50;;;;;;;;;;;;;;;20.61;41.86;101363.72;5096161;28;969;-56
2020/12/06 11:27:16;;;;;;;;;;;;;;;20.60;41.87;101361.25;5096621;28;1977;-57
2020/12/06 11:29:41;;;;;;;;;;;;;;;20.44;42.27;101354.97;5096110;28;822;-59
2020/12/06 11:32:07;;;;;;;;;;;;;;;20.39;42.23;101344.78;5096398;28;774;-56
2020/12/06 11:34:32;;;;;;;;;;;;;;;20.51;42.02;101348.03;5096428;28;766;-59
2020/12/06 11:36:58;;;;;;;;;;;;;;;20.62;42.05;101345.19;5096602;28;790;-59
2020/12/06 11:39:23;;;;;;;;;;;;;;;20.63;41.82;101335.78;5096268;28;803;-60
2020/12/06 11:41:52;;;;;;;;;;;;;;;20.45;42.45;101343.63;5096566;28;1005;-58
2020/12/06 11:44:17;;;;;;;;;;;;;;;20.54;42.17;101343.03;5096463;28;855;-57
2020/12/06 11:46:44;;;;;;;;;;;;;;;20.40;42.29;101346.44;5096231;28;823;-60
2020/12/06 11:49:10;;;;;;;;;;;;;;;20.38;42.50;101350.59;5096306;28;1910;-61
2020/12/06 11:51:35;;;;;;;;;;;;;;;20.20;42.84;101347.38;5096450;28;874;-61
2020/12/06 11:54:00;;;;;;;;;;;;;;;20.33;42.64;101345.94;5094801;28;885;-57
2020/12/06 11:56:26;;;;;;;;;;;;;;;20.46;42.17;101342.53;5095962;28;1078;-57
2020/12/06 11:58:51;;;;;;;;;;;;;;;20.45;42.17;101359.41;5096266;28;751;-57
2020/12/06 12:01:17;;;;;;;;;;;;;;;20.43;42.20;101351.41;5096032;28;731;-56
2020/12/06 12:03:42;;;;;;;;;;;;;;;20.30;42.61;101341.81;5096164;28;743;-60
2020/12/06 12:06:08;;;;;;;;;;;;;;;20.40;42.50;101340.94;5096237;28;775;-58
2020/12/06 12:08:33;;;;;;;;;;;;;;;20.32;42.54;101338.75;5095916;28;1977;-59
2020/12/06 12:10:59;;;;;;;;;;;;;;;20.39;42.29;101330.97;5095657;28;1016;-59
2020/12/06 12:13:25;;;;;;;;;;;;;;;20.46;42.12;101342.53;5096131;28;806;-62
2020/12/06 12:15:50;;;;;;;;;;;;;;;20.38;42.54;101348.66;5095984;28;811;-61
2020/12/06 12:18:15;;;;;;;;;;;;;;;20.30;42.69;101349.25;5095818;28;1035;-60
2020/12/06 12:20:41;;;;;;;;;;;;;;;20.44;42.45;101342.00;5096107;28;776;-59
2020/12/06 12:23:06;;;;;;;;;;;;;;;20.45;42.26;101340.88;5096248;28;827;-60
2020/12/06 12:25:32;;;;;;;;;;;;;;;20.33;42.57;101341.25;5095547;28;957;-63
2020/12/06 12:27:57;;;;;;;;;;;;;;;20.34;42.48;101339.28;5096448;28;1914;-59
2020/12/06 12:30:23;;;;;;;;;;;;;;;20.38;42.36;101345.06;5095786;28;876;-50
2020/12/06 12:32:48;;;;;;;;;;;;;;;20.38;42.41;101353.38;5096112;28;795;-60
2020/12/06 12:35:14;;;;;;;;;;;;;;;20.24;42.64;101353.16;5096013;28;835;-61
2020/12/06 12:37:39;;;;;;;;;;;;;;;20.29;42.70;101355.91;5095671;28;835;-58
2020/12/06 12:40:05;;;;;;;;;;;;;;;20.32;42.58;101345.09;5094252;28;1033;-59
2020/12/06 12:42:30;;;;;;;;;;;;;;;20.34;42.53;101353.09;5098454;28;835;-59
2020/12/06 12:44:55;;;;;;;;;;;;;;;20.15;42.67;101353.75;5099527;28;859;-59
2020/12/06 12:47:21;;;;;;;;;;;;;;;20.20;42.61;101338.28;5099359;28;1980;-57
2020/12/06 12:49:46;;;;;;;;;;;;;;;20.25;42.71;101341.03;5100255;28;764;-58